sensor_id;sensor_type;location;lat;lon;timestamp;P1;durP1;ratioP1;P2;durP2;ratioP2
13607;SDS011;6875;50.852;5.672;2023-04-03T00:00:37;5.17;;;2.23;;
13607;SDS011;6875;50.852;5.672;2023-04-03T00:03:04;3.67;;;2.07;;
13607;SDS011;6875;50.852;5.672;2023-04-03T00:05:30;4.87;;;2.00;;
13607;SDS011;6875;50.852;5.672;2023-04-03T00:07:57;4.17;;;2.10;;
13607;SDS011;6875;50.852;5.672;2023-04-03T00:10:23;3.70;;;1.63;;
13607;SDS011;6875;50.852;5.672;2023-04-03T00:12:50;4.00;;;1.93;;
13607;SDS011;6875;50.852;5.672;2023-04-03T00:15:19;3.50;;;1.90;;
13607;SDS011;6875;50.852;5.672;2023-04-03T00:17:47;2.97;;;1.87;;
13607;SDS011;6875;50.852;5.672;2023-04-03T00:20:13;2.57;;;2.10;;
13607;SDS011;6875;50.852;5.672;2023-04-03T00:22:40;2.47;;;1.83;;
13607;SDS011;6875;50.852;5.672;2023-04-03T00:25:07;3.27;;;2.10;;
13607;SDS011;6875;50.852;5.672;2023-04-03T00:27:35;2.50;;;1.80;;
13607;SDS011;6875;50.852;5.672;2023-04-03T00:30:02;3.60;;;2.07;;
13607;SDS011;6875;50.852;5.672;2023-04-03T00:32:29;2.10;;;1.50;;
13607;SDS011;6875;50.852;5.672;2023-04-03T00:34:57;3.57;;;2.00;;
13607;SDS011;6875;50.852;5.672;2023-04-03T00:37:24;2.40;;;1.90;;
13607;SDS011;6875;50.852;5.672;2023-04-03T00:39:51;6.97;;;2.40;;
13607;SDS011;6875;50.852;5.672;2023-04-03T00:42:17;4.90;;;2.10;;
13607;SDS011;6875;50.852;5.672;2023-04-03T00:47:48;5.13;;;2.47;;
13607;SDS011;6875;50.852;5.672;2023-04-03T00:50:16;5.43;;;2.47;;
13607;SDS011;6875;50.852;5.672;2023-04-03T00:52:43;5.10;;;2.50;;
13607;SDS011;6875;50.852;5.672;2023-04-03T00:55:11;4.90;;;2.07;;
13607;SDS011;6875;50.852;5.672;2023-04-03T00:57:39;4.10;;;1.97;;
13607;SDS011;6875;50.852;5.672;2023-04-03T01:00:08;3.07;;;2.30;;
13607;SDS011;6875;50.852;5.672;2023-04-03T01:02:36;3.90;;;2.10;;
13607;SDS011;6875;50.852;5.672;2023-04-03T01:05:03;3.63;;;2.23;;
13607;SDS011;6875;50.852;5.672;2023-04-03T01:07:32;5.17;;;2.43;;
13607;SDS011;6875;50.852;5.672;2023-04-03T01:10:03;3.53;;;1.80;;
13607;SDS011;6875;50.852;5.672;2023-04-03T01:12:32;2.67;;;1.73;;
13607;SDS011;6875;50.852;5.672;2023-04-03T01:15:00;4.23;;;2.03;;
13607;SDS011;6875;50.852;5.672;2023-04-03T01:17:29;5.20;;;2.57;;
13607;SDS011;6875;50.852;5.672;2023-04-03T01:20:03;3.87;;;2.03;;
13607;SDS011;6875;50.852;5.672;2023-04-03T01:22:48;4.00;;;2.20;;
13607;SDS011;6875;50.852;5.672;2023-04-03T01:25:21;3.03;;;1.87;;
13607;SDS011;6875;50.852;5.672;2023-04-03T01:27:47;4.07;;;2.20;;
13607;SDS011;6875;50.852;5.672;2023-04-03T01:30:14;3.43;;;1.90;;
13607;SDS011;6875;50.852;5.672;2023-04-03T01:32:44;3.57;;;2.10;;
13607;SDS011;6875;50.852;5.672;2023-04-03T01:35:11;3.87;;;1.87;;
13607;SDS011;6875;50.852;5.672;2023-04-03T01:37:38;4.10;;;1.90;;
13607;SDS011;6875;50.852;5.672;2023-04-03T01:40:05;8.53;;;2.43;;
13607;SDS011;6875;50.852;5.672;2023-04-03T01:42:33;4.07;;;2.50;;
13607;SDS011;6875;50.852;5.672;2023-04-03T01:44:59;3.30;;;2.07;;
13607;SDS011;6875;50.852;5.672;2023-04-03T01:47:26;3.70;;;2.13;;
13607;SDS011;6875;50.852;5.672;2023-04-03T01:49:54;2.90;;;1.80;;
13607;SDS011;6875;50.852;5.672;2023-04-03T01:52:20;3.67;;;1.93;;
13607;SDS011;6875;50.852;5.672;2023-04-03T01:54:47;3.10;;;1.90;;
13607;SDS011;6875;50.852;5.672;2023-04-03T01:57:14;2.80;;;1.57;;
13607;SDS011;6875;50.852;5.672;2023-04-03T01:59:41;3.10;;;2.20;;
13607;SDS011;6875;50.852;5.672;2023-04-03T02:02:08;3.80;;;1.90;;
13607;SDS011;6875;50.852;5.672;2023-04-03T02:04:34;5.23;;;2.30;;
13607;SDS011;6875;50.852;5.672;2023-04-03T02:07:02;2.37;;;1.93;;
13607;SDS011;6875;50.852;5.672;2023-04-03T02:09:29;3.87;;;2.00;;
13607;SDS011;6875;50.852;5.672;2023-04-03T02:11:55;3.53;;;2.20;;
13607;SDS011;6875;50.852;5.672;2023-04-03T02:14:22;6.20;;;2.43;;
13607;SDS011;6875;50.852;5.672;2023-04-03T02:16:48;8.43;;;2.30;;
13607;SDS011;6875;50.852;5.672;2023-04-03T02:19:15;5.00;;;2.07;;
13607;SDS011;6875;50.852;5.672;2023-04-03T02:21:42;3.80;;;2.27;;
13607;SDS011;6875;50.852;5.672;2023-04-03T02:24:10;4.03;;;2.03;;
13607;SDS011;6875;50.852;5.672;2023-04-03T02:26:36;2.53;;;1.80;;
13607;SDS011;6875;50.852;5.672;2023-04-03T02:29:03;7.00;;;2.37;;
13607;SDS011;6875;50.852;5.672;2023-04-03T02:31:30;3.90;;;1.77;;
13607;SDS011;6875;50.852;5.672;2023-04-03T02:33:56;3.73;;;1.87;;
13607;SDS011;6875;50.852;5.672;2023-04-03T02:36:23;4.27;;;2.23;;
13607;SDS011;6875;50.852;5.672;2023-04-03T02:38:49;2.73;;;2.00;;
13607;SDS011;6875;50.852;5.672;2023-04-03T02:41:17;2.70;;;2.00;;
13607;SDS011;6875;50.852;5.672;2023-04-03T02:43:45;3.70;;;2.07;;
13607;SDS011;6875;50.852;5.672;2023-04-03T02:46:12;3.77;;;1.93;;
13607;SDS011;6875;50.852;5.672;2023-04-03T02:48:40;3.50;;;2.27;;
13607;SDS011;6875;50.852;5.672;2023-04-03T02:51:06;3.93;;;2.30;;
13607;SDS011;6875;50.852;5.672;2023-04-03T02:53:33;3.60;;;2.33;;
13607;SDS011;6875;50.852;5.672;2023-04-03T02:55:59;4.63;;;2.10;;
13607;SDS011;6875;50.852;5.672;2023-04-03T02:58:27;4.70;;;2.50;;
13607;SDS011;6875;50.852;5.672;2023-04-03T03:00:54;5.40;;;2.10;;
13607;SDS011;6875;50.852;5.672;2023-04-03T03:03:20;4.23;;;2.13;;
13607;SDS011;6875;50.852;5.672;2023-04-03T03:05:48;3.40;;;2.10;;
13607;SDS011;6875;50.852;5.672;2023-04-03T03:08:14;5.00;;;2.50;;
13607;SDS011;6875;50.852;5.672;2023-04-03T03:10:41;4.63;;;2.27;;
13607;SDS011;6875;50.852;5.672;2023-04-03T03:13:07;5.40;;;2.63;;
13607;SDS011;6875;50.852;5.672;2023-04-03T03:15:35;5.03;;;2.40;;
13607;SDS011;6875;50.852;5.672;2023-04-03T03:18:02;3.60;;;2.23;;
13607;SDS011;6875;50.852;5.672;2023-04-03T03:20:28;3.40;;;2.03;;
13607;SDS011;6875;50.852;5.672;2023-04-03T03:22:55;2.93;;;1.93;;
13607;SDS011;6875;50.852;5.672;2023-04-03T03:25:22;4.97;;;2.10;;
13607;SDS011;6875;50.852;5.672;2023-04-03T03:27:48;5.43;;;2.17;;
13607;SDS011;6875;50.852;5.672;2023-04-03T03:30:15;4.97;;;2.00;;
13607;SDS011;6875;50.852;5.672;2023-04-03T03:32:43;5.07;;;2.10;;
13607;SDS011;6875;50.852;5.672;2023-04-03T03:35:09;6.17;;;2.80;;
13607;SDS011;6875;50.852;5.672;2023-04-03T03:37:36;3.70;;;2.30;;
13607;SDS011;6875;50.852;5.672;2023-04-03T03:40:03;3.50;;;2.20;;
13607;SDS011;6875;50.852;5.672;2023-04-03T03:42:30;4.43;;;2.20;;
13607;SDS011;6875;50.852;5.672;2023-04-03T03:44:56;5.10;;;2.23;;
13607;SDS011;6875;50.852;5.672;2023-04-03T03:47:23;3.53;;;2.23;;
13607;SDS011;6875;50.852;5.672;2023-04-03T03:49:51;5.10;;;2.60;;
13607;SDS011;6875;50.852;5.672;2023-04-03T03:52:18;4.90;;;2.10;;
13607;SDS011;6875;50.852;5.672;2023-04-03T03:54:44;4.50;;;2.40;;
13607;SDS011;6875;50.852;5.672;2023-04-03T03:57:11;6.73;;;2.57;;
13607;SDS011;6875;50.852;5.672;2023-04-03T03:59:37;4.90;;;2.43;;
13607;SDS011;6875;50.852;5.672;2023-04-03T04:02:05;4.50;;;2.73;;
13607;SDS011;6875;50.852;5.672;2023-04-03T04:04:32;4.23;;;2.40;;
13607;SDS011;6875;50.852;5.672;2023-04-03T04:07:00;3.53;;;2.27;;
13607;SDS011;6875;50.852;5.672;2023-04-03T04:09:27;5.93;;;2.67;;
13607;SDS011;6875;50.852;5.672;2023-04-03T04:11:53;2.93;;;2.00;;
13607;SDS011;6875;50.852;5.672;2023-04-03T04:14:20;7.17;;;2.40;;
13607;SDS011;6875;50.852;5.672;2023-04-03T04:16:46;5.70;;;2.90;;
13607;SDS011;6875;50.852;5.672;2023-04-03T04:19:13;3.53;;;2.53;;
13607;SDS011;6875;50.852;5.672;2023-04-03T04:21:40;5.40;;;2.47;;
13607;SDS011;6875;50.852;5.672;2023-04-03T04:24:08;5.33;;;2.50;;
13607;SDS011;6875;50.852;5.672;2023-04-03T04:26:35;3.70;;;2.40;;
13607;SDS011;6875;50.852;5.672;2023-04-03T04:29:02;5.37;;;2.20;;
13607;SDS011;6875;50.852;5.672;2023-04-03T04:31:28;3.20;;;2.20;;
13607;SDS011;6875;50.852;5.672;2023-04-03T04:33:55;6.53;;;2.23;;
13607;SDS011;6875;50.852;5.672;2023-04-03T04:36:22;4.67;;;2.50;;
13607;SDS011;6875;50.852;5.672;2023-04-03T04:38:49;7.20;;;2.20;;
13607;SDS011;6875;50.852;5.672;2023-04-03T04:41:19;4.67;;;3.20;;
13607;SDS011;6875;50.852;5.672;2023-04-03T04:43:47;7.73;;;3.17;;
13607;SDS011;6875;50.852;5.672;2023-04-03T04:46:14;5.30;;;2.47;;
13607;SDS011;6875;50.852;5.672;2023-04-03T04:48:40;3.30;;;2.20;;
13607;SDS011;6875;50.852;5.672;2023-04-03T04:51:07;6.70;;;2.50;;
13607;SDS011;6875;50.852;5.672;2023-04-03T04:53:34;4.07;;;2.47;;
13607;SDS011;6875;50.852;5.672;2023-04-03T04:56:00;3.87;;;2.27;;
13607;SDS011;6875;50.852;5.672;2023-04-03T04:58:28;5.27;;;2.40;;
13607;SDS011;6875;50.852;5.672;2023-04-03T05:00:58;6.07;;;2.60;;
13607;SDS011;6875;50.852;5.672;2023-04-03T05:03:25;4.87;;;2.23;;
13607;SDS011;6875;50.852;5.672;2023-04-03T05:05:51;5.27;;;2.53;;
13607;SDS011;6875;50.852;5.672;2023-04-03T05:08:18;4.73;;;2.47;;
13607;SDS011;6875;50.852;5.672;2023-04-03T05:10:45;6.13;;;2.43;;
13607;SDS011;6875;50.852;5.672;2023-04-03T05:13:11;6.20;;;3.20;;
13607;SDS011;6875;50.852;5.672;2023-04-03T05:15:39;4.83;;;2.60;;
13607;SDS011;6875;50.852;5.672;2023-04-03T05:18:06;9.70;;;3.00;;
13607;SDS011;6875;50.852;5.672;2023-04-03T05:20:33;5.83;;;3.00;;
13607;SDS011;6875;50.852;5.672;2023-04-03T05:23:00;4.30;;;2.20;;
13607;SDS011;6875;50.852;5.672;2023-04-03T05:25:26;4.70;;;2.63;;
13607;SDS011;6875;50.852;5.672;2023-04-03T05:27:53;4.30;;;2.50;;
13607;SDS011;6875;50.852;5.672;2023-04-03T05:30:19;5.70;;;2.43;;
13607;SDS011;6875;50.852;5.672;2023-04-03T05:32:48;4.40;;;2.33;;
13607;SDS011;6875;50.852;5.672;2023-04-03T05:35:14;5.27;;;2.53;;
13607;SDS011;6875;50.852;5.672;2023-04-03T05:37:41;4.20;;;2.20;;
13607;SDS011;6875;50.852;5.672;2023-04-03T05:40:08;3.77;;;2.13;;
13607;SDS011;6875;50.852;5.672;2023-04-03T05:42:35;7.83;;;2.47;;
13607;SDS011;6875;50.852;5.672;2023-04-03T05:45:02;4.50;;;2.60;;
13607;SDS011;6875;50.852;5.672;2023-04-03T05:47:29;2.90;;;2.10;;
13607;SDS011;6875;50.852;5.672;2023-04-03T05:49:57;3.70;;;2.30;;
13607;SDS011;6875;50.852;5.672;2023-04-03T05:52:25;5.83;;;2.23;;
13607;SDS011;6875;50.852;5.672;2023-04-03T05:54:53;9.03;;;2.83;;
13607;SDS011;6875;50.852;5.672;2023-04-03T05:57:20;4.87;;;2.57;;
13607;SDS011;6875;50.852;5.672;2023-04-03T05:59:47;4.63;;;2.50;;
13607;SDS011;6875;50.852;5.672;2023-04-03T06:02:14;3.40;;;2.13;;
13607;SDS011;6875;50.852;5.672;2023-04-03T06:04:42;4.80;;;2.37;;
13607;SDS011;6875;50.852;5.672;2023-04-03T06:07:11;8.73;;;2.90;;
13607;SDS011;6875;50.852;5.672;2023-04-03T06:09:38;4.77;;;2.47;;
13607;SDS011;6875;50.852;5.672;2023-04-03T06:12:05;6.40;;;2.20;;
13607;SDS011;6875;50.852;5.672;2023-04-03T06:14:31;6.57;;;2.53;;
13607;SDS011;6875;50.852;5.672;2023-04-03T06:16:58;6.90;;;2.10;;
13607;SDS011;6875;50.852;5.672;2023-04-03T06:19:25;5.73;;;2.07;;
13607;SDS011;6875;50.852;5.672;2023-04-03T06:21:51;4.03;;;2.20;;
13607;SDS011;6875;50.852;5.672;2023-04-03T06:24:19;8.63;;;2.73;;
13607;SDS011;6875;50.852;5.672;2023-04-03T06:26:47;5.33;;;2.43;;
13607;SDS011;6875;50.852;5.672;2023-04-03T06:29:14;3.20;;;2.03;;
13607;SDS011;6875;50.852;5.672;2023-04-03T06:31:40;8.10;;;2.53;;
13607;SDS011;6875;50.852;5.672;2023-04-03T06:34:07;5.63;;;2.50;;
13607;SDS011;6875;50.852;5.672;2023-04-03T06:36:33;7.23;;;3.37;;
13607;SDS011;6875;50.852;5.672;2023-04-03T06:39:00;7.83;;;2.70;;
13607;SDS011;6875;50.852;5.672;2023-04-03T06:41:29;6.07;;;2.83;;
13607;SDS011;6875;50.852;5.672;2023-04-03T06:43:56;5.50;;;2.70;;
13607;SDS011;6875;50.852;5.672;2023-04-03T06:46:23;6.37;;;2.53;;
13607;SDS011;6875;50.852;5.672;2023-04-03T06:48:50;4.40;;;2.40;;
13607;SDS011;6875;50.852;5.672;2023-04-03T06:51:18;3.40;;;2.33;;
13607;SDS011;6875;50.852;5.672;2023-04-03T06:53:46;10.73;;;3.00;;
13607;SDS011;6875;50.852;5.672;2023-04-03T06:56:13;8.20;;;2.33;;
13607;SDS011;6875;50.852;5.672;2023-04-03T06:58:41;5.53;;;2.00;;
13607;SDS011;6875;50.852;5.672;2023-04-03T07:01:08;5.67;;;2.50;;
13607;SDS011;6875;50.852;5.672;2023-04-03T07:03:35;3.93;;;2.20;;
13607;SDS011;6875;50.852;5.672;2023-04-03T07:06:02;5.33;;;2.13;;
13607;SDS011;6875;50.852;5.672;2023-04-03T07:08:29;4.03;;;1.90;;
13607;SDS011;6875;50.852;5.672;2023-04-03T07:10:56;6.10;;;2.67;;
13607;SDS011;6875;50.852;5.672;2023-04-03T07:13:23;5.87;;;2.47;;
13607;SDS011;6875;50.852;5.672;2023-04-03T07:15:51;6.43;;;2.40;;
13607;SDS011;6875;50.852;5.672;2023-04-03T07:18:18;6.73;;;2.97;;
13607;SDS011;6875;50.852;5.672;2023-04-03T07:20:45;5.80;;;2.10;;
13607;SDS011;6875;50.852;5.672;2023-04-03T07:23:11;4.77;;;2.73;;
13607;SDS011;6875;50.852;5.672;2023-04-03T07:25:41;4.23;;;1.90;;
13607;SDS011;6875;50.852;5.672;2023-04-03T07:28:08;5.23;;;2.17;;
13607;SDS011;6875;50.852;5.672;2023-04-03T07:30:41;5.60;;;2.60;;
13607;SDS011;6875;50.852;5.672;2023-04-03T07:33:10;7.27;;;2.30;;
13607;SDS011;6875;50.852;5.672;2023-04-03T07:35:36;3.97;;;2.60;;
13607;SDS011;6875;50.852;5.672;2023-04-03T07:38:03;7.00;;;3.03;;
13607;SDS011;6875;50.852;5.672;2023-04-03T07:40:30;5.17;;;2.67;;
13607;SDS011;6875;50.852;5.672;2023-04-03T07:42:57;4.90;;;2.37;;
13607;SDS011;6875;50.852;5.672;2023-04-03T07:45:23;3.77;;;2.10;;
13607;SDS011;6875;50.852;5.672;2023-04-03T07:47:50;6.77;;;2.13;;
13607;SDS011;6875;50.852;5.672;2023-04-03T07:50:18;5.30;;;2.23;;
13607;SDS011;6875;50.852;5.672;2023-04-03T07:52:45;5.50;;;2.57;;
13607;SDS011;6875;50.852;5.672;2023-04-03T07:55:11;8.93;;;2.47;;
13607;SDS011;6875;50.852;5.672;2023-04-03T07:57:38;9.20;;;2.60;;
13607;SDS011;6875;50.852;5.672;2023-04-03T08:00:05;6.40;;;2.20;;
13607;SDS011;6875;50.852;5.672;2023-04-03T08:02:33;5.60;;;2.23;;
13607;SDS011;6875;50.852;5.672;2023-04-03T08:05:00;3.30;;;2.20;;
13607;SDS011;6875;50.852;5.672;2023-04-03T08:07:29;4.90;;;1.97;;
13607;SDS011;6875;50.852;5.672;2023-04-03T08:09:55;4.50;;;1.90;;
13607;SDS011;6875;50.852;5.672;2023-04-03T08:12:22;4.67;;;1.77;;
13607;SDS011;6875;50.852;5.672;2023-04-03T08:14:48;4.27;;;1.83;;
13607;SDS011;6875;50.852;5.672;2023-04-03T08:17:15;7.43;;;2.03;;
13607;SDS011;6875;50.852;5.672;2023-04-03T08:19:42;2.47;;;1.90;;
13607;SDS011;6875;50.852;5.672;2023-04-03T08:22:09;6.23;;;1.70;;
13607;SDS011;6875;50.852;5.672;2023-04-03T08:24:37;6.10;;;2.10;;
13607;SDS011;6875;50.852;5.672;2023-04-03T08:27:03;2.70;;;1.70;;
13607;SDS011;6875;50.852;5.672;2023-04-03T08:29:30;6.50;;;1.90;;
13607;SDS011;6875;50.852;5.672;2023-04-03T08:31:56;4.27;;;1.77;;
13607;SDS011;6875;50.852;5.672;2023-04-03T08:34:23;5.90;;;2.10;;
13607;SDS011;6875;50.852;5.672;2023-04-03T08:36:50;7.80;;;1.97;;
13607;SDS011;6875;50.852;5.672;2023-04-03T08:39:16;3.60;;;1.77;;
13607;SDS011;6875;50.852;5.672;2023-04-03T08:41:44;4.67;;;1.47;;
13607;SDS011;6875;50.852;5.672;2023-04-03T08:44:17;3.33;;;1.60;;
13607;SDS011;6875;50.852;5.672;2023-04-03T08:46:59;3.10;;;1.30;;
13607;SDS011;6875;50.852;5.672;2023-04-03T08:49:30;3.00;;;1.40;;
13607;SDS011;6875;50.852;5.672;2023-04-03T08:51:58;4.50;;;1.50;;
13607;SDS011;6875;50.852;5.672;2023-04-03T08:54:28;4.83;;;1.70;;
13607;SDS011;6875;50.852;5.672;2023-04-03T08:57:13;7.13;;;1.83;;
13607;SDS011;6875;50.852;5.672;2023-04-03T08:59:40;4.17;;;1.47;;
13607;SDS011;6875;50.852;5.672;2023-04-03T09:02:14;4.07;;;1.50;;
13607;SDS011;6875;50.852;5.672;2023-04-03T09:04:50;2.43;;;1.40;;
13607;SDS011;6875;50.852;5.672;2023-04-03T09:07:18;3.33;;;1.57;;
13607;SDS011;6875;50.852;5.672;2023-04-03T09:09:48;2.70;;;1.50;;
13607;SDS011;6875;50.852;5.672;2023-04-03T09:12:18;4.17;;;1.80;;
13607;SDS011;6875;50.852;5.672;2023-04-03T09:14:51;3.60;;;1.30;;
13607;SDS011;6875;50.852;5.672;2023-04-03T09:17:26;2.77;;;1.50;;
13607;SDS011;6875;50.852;5.672;2023-04-03T09:20:06;3.90;;;1.40;;
13607;SDS011;6875;50.852;5.672;2023-04-03T09:22:37;5.27;;;1.80;;
13607;SDS011;6875;50.852;5.672;2023-04-03T09:25:08;1.53;;;1.17;;
13607;SDS011;6875;50.852;5.672;2023-04-03T09:27:39;2.53;;;1.20;;
13607;SDS011;6875;50.852;5.672;2023-04-03T09:30:11;3.67;;;1.30;;
13607;SDS011;6875;50.852;5.672;2023-04-03T09:32:40;3.10;;;1.33;;
13607;SDS011;6875;50.852;5.672;2023-04-03T09:35:14;4.50;;;1.50;;
13607;SDS011;6875;50.852;5.672;2023-04-03T09:37:45;3.70;;;1.30;;
13607;SDS011;6875;50.852;5.672;2023-04-03T09:40:27;2.27;;;1.20;;
13607;SDS011;6875;50.852;5.672;2023-04-03T09:42:57;1.57;;;1.10;;
13607;SDS011;6875;50.852;5.672;2023-04-03T09:45:26;1.63;;;1.10;;
13607;SDS011;6875;50.852;5.672;2023-04-03T09:48:04;2.07;;;1.10;;
13607;SDS011;6875;50.852;5.672;2023-04-03T09:50:33;2.10;;;1.10;;
13607;SDS011;6875;50.852;5.672;2023-04-03T09:53:04;3.33;;;1.33;;
13607;SDS011;6875;50.852;5.672;2023-04-03T09:55:32;2.90;;;1.00;;
13607;SDS011;6875;50.852;5.672;2023-04-03T09:58:25;2.73;;;1.00;;
13607;SDS011;6875;50.852;5.672;2023-04-03T10:00:56;1.50;;;0.93;;
13607;SDS011;6875;50.852;5.672;2023-04-03T10:03:24;1.50;;;1.10;;
13607;SDS011;6875;50.852;5.672;2023-04-03T10:05:53;2.10;;;0.80;;
13607;SDS011;6875;50.852;5.672;2023-04-03T10:08:21;1.90;;;0.80;;
13607;SDS011;6875;50.852;5.672;2023-04-03T10:11:05;1.50;;;0.60;;
13607;SDS011;6875;50.852;5.672;2023-04-03T10:13:36;1.50;;;0.70;;
13607;SDS011;6875;50.852;5.672;2023-04-03T10:16:17;1.00;;;0.57;;
13607;SDS011;6875;50.852;5.672;2023-04-03T10:18:45;1.23;;;0.80;;
13607;SDS011;6875;50.852;5.672;2023-04-03T10:21:15;1.00;;;0.67;;
13607;SDS011;6875;50.852;5.672;2023-04-03T10:23:48;2.20;;;0.97;;
13607;SDS011;6875;50.852;5.672;2023-04-03T10:26:21;3.53;;;0.80;;
13607;SDS011;6875;50.852;5.672;2023-04-03T10:28:57;1.60;;;0.60;;
13607;SDS011;6875;50.852;5.672;2023-04-03T10:31:29;1.83;;;0.77;;
13607;SDS011;6875;50.852;5.672;2023-04-03T10:34:01;3.63;;;0.70;;
13607;SDS011;6875;50.852;5.672;2023-04-03T10:36:34;0.93;;;0.73;;
13607;SDS011;6875;50.852;5.672;2023-04-03T10:39:06;0.70;;;0.67;;
13607;SDS011;6875;50.852;5.672;2023-04-03T10:41:42;1.10;;;0.70;;
13607;SDS011;6875;50.852;5.672;2023-04-03T10:44:15;2.53;;;0.67;;
13607;SDS011;6875;50.852;5.672;2023-04-03T10:46:47;0.63;;;0.60;;
13607;SDS011;6875;50.852;5.672;2023-04-03T10:49:19;0.50;;;0.50;;
13607;SDS011;6875;50.852;5.672;2023-04-03T10:51:53;1.00;;;0.70;;
13607;SDS011;6875;50.852;5.672;2023-04-03T10:54:26;1.83;;;0.70;;
13607;SDS011;6875;50.852;5.672;2023-04-03T10:56:57;1.53;;;0.67;;
13607;SDS011;6875;50.852;5.672;2023-04-03T10:59:30;0.83;;;0.60;;
13607;SDS011;6875;50.852;5.672;2023-04-03T11:01:59;2.93;;;0.80;;
13607;SDS011;6875;50.852;5.672;2023-04-03T11:04:27;1.17;;;0.80;;
13607;SDS011;6875;50.852;5.672;2023-04-03T11:06:57;1.23;;;0.50;;
13607;SDS011;6875;50.852;5.672;2023-04-03T11:09:28;0.50;;;0.50;;
13607;SDS011;6875;50.852;5.672;2023-04-03T11:12:03;1.27;;;0.70;;
13607;SDS011;6875;50.852;5.672;2023-04-03T11:14:34;0.93;;;0.60;;
13607;SDS011;6875;50.852;5.672;2023-04-03T11:17:05;0.83;;;0.50;;
13607;SDS011;6875;50.852;5.672;2023-04-03T11:19:39;0.63;;;0.60;;
13607;SDS011;6875;50.852;5.672;2023-04-03T11:22:10;1.17;;;0.57;;
13607;SDS011;6875;50.852;5.672;2023-04-03T11:24:41;1.07;;;0.60;;
13607;SDS011;6875;50.852;5.672;2023-04-03T11:27:11;0.63;;;0.63;;
13607;SDS011;6875;50.852;5.672;2023-04-03T11:29:45;0.97;;;0.67;;
13607;SDS011;6875;50.852;5.672;2023-04-03T11:32:21;1.03;;;0.70;;
13607;SDS011;6875;50.852;5.672;2023-04-03T11:34:56;1.17;;;0.60;;
13607;SDS011;6875;50.852;5.672;2023-04-03T11:37:25;0.63;;;0.60;;
13607;SDS011;6875;50.852;5.672;2023-04-03T11:39:56;1.50;;;0.70;;
13607;SDS011;6875;50.852;5.672;2023-04-03T11:42:25;3.03;;;0.80;;
13607;SDS011;6875;50.852;5.672;2023-04-03T11:48:07;2.20;;;0.60;;
13607;SDS011;6875;50.852;5.672;2023-04-03T11:57:22;2.40;;;0.57;;
13607;SDS011;6875;50.852;5.672;2023-04-03T12:03:29;1.63;;;0.60;;
13607;SDS011;6875;50.852;5.672;2023-04-03T12:09:14;1.60;;;0.83;;
13607;SDS011;6875;50.852;5.672;2023-04-03T12:11:49;4.90;;;0.97;;
13607;SDS011;6875;50.852;5.672;2023-04-03T12:14:15;0.70;;;0.70;;
13607;SDS011;6875;50.852;5.672;2023-04-03T12:16:43;2.23;;;0.70;;
13607;SDS011;6875;50.852;5.672;2023-04-03T12:19:33;0.70;;;0.70;;
13607;SDS011;6875;50.852;5.672;2023-04-03T12:22:15;1.83;;;0.80;;
13607;SDS011;6875;50.852;5.672;2023-04-03T12:24:47;1.20;;;0.90;;
13607;SDS011;6875;50.852;5.672;2023-04-03T12:27:20;1.90;;;0.73;;
13607;SDS011;6875;50.852;5.672;2023-04-03T12:29:56;1.77;;;0.93;;
13607;SDS011;6875;50.852;5.672;2023-04-03T12:32:41;1.40;;;0.83;;
13607;SDS011;6875;50.852;5.672;2023-04-03T12:35:23;0.93;;;0.80;;
13607;SDS011;6875;50.852;5.672;2023-04-03T12:40:49;1.90;;;0.93;;
13607;SDS011;6875;50.852;5.672;2023-04-03T12:46:10;2.63;;;1.03;;
13607;SDS011;6875;50.852;5.672;2023-04-03T12:48:46;1.47;;;0.87;;
13607;SDS011;6875;50.852;5.672;2023-04-03T12:51:15;2.40;;;1.00;;
13607;SDS011;6875;50.852;5.672;2023-04-03T12:53:44;2.00;;;1.10;;
13607;SDS011;6875;50.852;5.672;2023-04-03T12:56:19;2.07;;;1.20;;
13607;SDS011;6875;50.852;5.672;2023-04-03T12:58:48;2.70;;;1.00;;
13607;SDS011;6875;50.852;5.672;2023-04-03T13:01:16;1.53;;;0.93;;
13607;SDS011;6875;50.852;5.672;2023-04-03T13:03:44;4.57;;;1.10;;
13607;SDS011;6875;50.852;5.672;2023-04-03T13:06:14;2.93;;;1.03;;
13607;SDS011;6875;50.852;5.672;2023-04-03T13:08:48;5.07;;;1.37;;
13607;SDS011;6875;50.852;5.672;2023-04-03T13:11:15;1.83;;;0.90;;
13607;SDS011;6875;50.852;5.672;2023-04-03T13:13:54;2.63;;;1.00;;
13607;SDS011;6875;50.852;5.672;2023-04-03T13:16:22;3.40;;;1.30;;
13607;SDS011;6875;50.852;5.672;2023-04-03T13:18:52;3.30;;;1.40;;
13607;SDS011;6875;50.852;5.672;2023-04-03T13:21:20;2.40;;;1.10;;
13607;SDS011;6875;50.852;5.672;2023-04-03T13:23:49;2.13;;;1.10;;
13607;SDS011;6875;50.852;5.672;2023-04-03T13:26:17;2.50;;;1.20;;
13607;SDS011;6875;50.852;5.672;2023-04-03T13:28:45;1.77;;;0.93;;
13607;SDS011;6875;50.852;5.672;2023-04-03T13:31:19;2.30;;;1.17;;
13607;SDS011;6875;50.852;5.672;2023-04-03T13:33:52;2.53;;;1.20;;
13607;SDS011;6875;50.852;5.672;2023-04-03T13:36:21;1.97;;;1.17;;
13607;SDS011;6875;50.852;5.672;2023-04-03T13:38:57;1.97;;;1.20;;
13607;SDS011;6875;50.852;5.672;2023-04-03T13:41:25;1.70;;;1.00;;
13607;SDS011;6875;50.852;5.672;2023-04-03T13:43:53;2.83;;;1.13;;
13607;SDS011;6875;50.852;5.672;2023-04-03T13:46:24;3.07;;;1.00;;
13607;SDS011;6875;50.852;5.672;2023-04-03T13:48:53;2.80;;;1.30;;
13607;SDS011;6875;50.852;5.672;2023-04-03T13:51:21;2.50;;;1.20;;
13607;SDS011;6875;50.852;5.672;2023-04-03T13:53:50;3.17;;;1.30;;
13607;SDS011;6875;50.852;5.672;2023-04-03T13:56:24;2.90;;;1.30;;
13607;SDS011;6875;50.852;5.672;2023-04-03T13:58:56;2.03;;;1.20;;
13607;SDS011;6875;50.852;5.672;2023-04-03T14:01:43;3.53;;;1.30;;
13607;SDS011;6875;50.852;5.672;2023-04-03T14:04:15;1.97;;;1.30;;
13607;SDS011;6875;50.852;5.672;2023-04-03T14:06:44;3.93;;;1.40;;
13607;SDS011;6875;50.852;5.672;2023-04-03T14:09:11;1.23;;;1.10;;
13607;SDS011;6875;50.852;5.672;2023-04-03T14:11:39;2.23;;;1.10;;
13607;SDS011;6875;50.852;5.672;2023-04-03T14:14:09;2.87;;;1.50;;
13607;SDS011;6875;50.852;5.672;2023-04-03T14:16:40;2.97;;;1.50;;
13607;SDS011;6875;50.852;5.672;2023-04-03T14:19:14;2.33;;;1.37;;
13607;SDS011;6875;50.852;5.672;2023-04-03T14:21:45;3.27;;;1.40;;
13607;SDS011;6875;50.852;5.672;2023-04-03T14:24:12;1.77;;;1.10;;
13607;SDS011;6875;50.852;5.672;2023-04-03T14:26:38;3.77;;;1.30;;
13607;SDS011;6875;50.852;5.672;2023-04-03T14:29:06;3.77;;;1.10;;
13607;SDS011;6875;50.852;5.672;2023-04-03T14:31:32;1.90;;;1.17;;
13607;SDS011;6875;50.852;5.672;2023-04-03T14:34:00;2.50;;;1.20;;
13607;SDS011;6875;50.852;5.672;2023-04-03T14:36:27;2.07;;;1.13;;
13607;SDS011;6875;50.852;5.672;2023-04-03T14:38:55;2.17;;;1.00;;
13607;SDS011;6875;50.852;5.672;2023-04-03T14:41:22;2.13;;;1.30;;
13607;SDS011;6875;50.852;5.672;2023-04-03T14:43:50;1.77;;;1.27;;
13607;SDS011;6875;50.852;5.672;2023-04-03T14:46:18;2.63;;;1.10;;
13607;SDS011;6875;50.852;5.672;2023-04-03T14:48:46;4.20;;;1.20;;
13607;SDS011;6875;50.852;5.672;2023-04-03T14:51:14;3.47;;;1.50;;
13607;SDS011;6875;50.852;5.672;2023-04-03T14:53:42;3.10;;;1.30;;
13607;SDS011;6875;50.852;5.672;2023-04-03T14:56:10;2.40;;;1.30;;
13607;SDS011;6875;50.852;5.672;2023-04-03T14:58:37;2.63;;;1.47;;
13607;SDS011;6875;50.852;5.672;2023-04-03T15:01:04;2.37;;;1.20;;
13607;SDS011;6875;50.852;5.672;2023-04-03T15:03:31;2.97;;;1.10;;
13607;SDS011;6875;50.852;5.672;2023-04-03T15:05:57;3.60;;;1.43;;
13607;SDS011;6875;50.852;5.672;2023-04-03T15:08:26;3.40;;;1.37;;
13607;SDS011;6875;50.852;5.672;2023-04-03T15:10:55;2.97;;;1.50;;
13607;SDS011;6875;50.852;5.672;2023-04-03T15:13:22;4.10;;;1.60;;
13607;SDS011;6875;50.852;5.672;2023-04-03T15:15:49;2.57;;;1.40;;
13607;SDS011;6875;50.852;5.672;2023-04-03T15:18:17;1.70;;;1.07;;
13607;SDS011;6875;50.852;5.672;2023-04-03T15:20:45;1.57;;;1.00;;
13607;SDS011;6875;50.852;5.672;2023-04-03T15:23:13;3.30;;;1.10;;
13607;SDS011;6875;50.852;5.672;2023-04-03T15:25:42;2.23;;;1.33;;
13607;SDS011;6875;50.852;5.672;2023-04-03T15:28:10;2.13;;;1.17;;
13607;SDS011;6875;50.852;5.672;2023-04-03T15:30:44;3.07;;;1.40;;
13607;SDS011;6875;50.852;5.672;2023-04-03T15:33:10;2.97;;;1.20;;
13607;SDS011;6875;50.852;5.672;2023-04-03T15:35:37;2.50;;;1.27;;